West Henrietta, New York
Current Conditions -  °F | °C
As of 1:54 AM on Thursday 23 Oct 2014 (Local Time) from KROC Reporting Station
Few Clouds Few Clouds  
Wind Chill: 43°   Ceiling: Unl
Heat Index: 49°   Visibility: 10mi
Dew Point: 40°   Wind: 16mph
Humidity: 71%   Direction: 20°NNE
Pressure: 30.12"   Gusts: NA
Location:  43.04°N, 77.66°W
Report Text: KROC 230554Z 02014KT 10SM FEW080 09/04 A3012 RMK AO2 SLP204 T00940044 10106 20089 56017
Loading
Personal Weather Stations






























Interactive Weather Map
Tropical Storm Tracking
New forecast layout! Learn more

10-Day Weather Forecast

Advertisements
Track Severe Weather on mobile